Time;durP1;ratioP1;P1;durP2;ratioP2;P2;SDS_P1;SDS_P2;PMS_P1;PMS_P2;Temp;Humidity;BMP_temperature;BMP_pressure;BME280_temperature;BME280_humidity;BME280_pressure;Samples;Min_cycle;Max_cycle;Signal;HPM_P1;HPM_P2
2022/03/24 00:01:43;;;;;;;32.55;11.63;;;;;;;8.97;60.05;103084.22;5095280;27;126350;-36
2022/03/24 00:04:08;;;;;;;29.48;12.05;;;;;;;9.00;59.48;103094.09;5095733;27;99695;-37
2022/03/24 00:06:33;;;;;;;40.42;13.73;;;;;;;8.96;58.63;103086.94;5096605;27;96570;-36
2022/03/24 00:08:59;;;;;;;31.17;12.27;;;;;;;8.93;59.31;103079.78;5096613;27;96741;-36
2022/03/24 00:11:24;;;;;;;33.03;12.55;;;;;;;8.93;59.41;103090.59;5095470;27;98042;-36
2022/03/24 00:13:50;;;;;;;34.38;12.02;;;;;;;8.90;58.58;103079.84;5096036;27;102467;-36
2022/03/24 00:16:17;;;;;;;30.67;12.38;;;;;;;8.83;60.21;103079.06;5095686;27;96719;-37
2022/03/24 00:18:43;;;;;;;27.45;11.63;;;;;;;8.72;60.43;103064.84;5077267;27;97021;-37
2022/03/24 00:21:08;;;;;;;34.88;13.30;;;;;;;8.80;60.89;103075.53;5096103;27;97444;-36
2022/03/24 00:23:34;;;;;;;28.35;12.00;;;;;;;8.68;59.83;103069.44;5095952;27;97841;-36
2022/03/24 00:25:59;;;;;;;36.75;13.40;;;;;;;8.74;59.20;103071.13;5096045;27;96641;-36
2022/03/24 00:28:33;;;;;;;30.55;11.70;;;;;;;8.67;61.10;103069.44;5096217;27;96735;-36
2022/03/24 00:30:59;;;;;;;29.35;10.65;;;;;;;8.65;61.62;103076.69;5095615;27;97472;-36
2022/03/24 00:33:25;;;;;;;36.92;12.75;;;;;;;8.65;60.73;103082.09;5096199;27;97417;-36
2022/03/24 00:35:51;;;;;;;33.17;12.50;;;;;;;8.57;60.49;103076.81;5095970;27;96499;-36
2022/03/24 00:38:16;;;;;;;38.95;14.15;;;;;;;8.52;60.35;103067.03;5077378;27;96808;-36
2022/03/24 00:40:42;;;;;;;33.80;11.88;;;;;;;8.51;59.91;103063.44;5095060;27;99195;-37
2022/03/24 00:43:08;;;;;;;32.88;12.27;;;;;;;8.56;60.30;103082.28;5095519;27;97268;-36
2022/03/24 00:45:33;;;;;;;30.55;12.60;;;;;;;8.46;60.60;103066.22;5095885;27;96483;-36
2022/03/24 00:47:59;;;;;;;33.55;13.10;;;;;;;8.45;60.30;103053.63;5096080;27;96817;-37
2022/03/24 00:50:24;;;;;;;36.60;12.10;;;;;;;8.50;61.02;103077.84;5095715;27;97760;-36
2022/03/24 00:52:49;;;;;;;32.35;12.02;;;;;;;8.50;61.73;103072.44;5094628;27;126364;-36
2022/03/24 00:55:19;;;;;;;31.40;11.82;;;;;;;8.39;61.61;103066.28;5095959;27;96565;-36
2022/03/24 00:57:49;;;;;;;38.67;13.50;;;;;;;8.35;62.45;103067.28;5096318;27;96555;-36
2022/03/24 01:00:17;;;;;;;24.00;9.68;;;;;;;8.23;61.92;103060.28;5076579;27;101067;-37
2022/03/24 01:02:44;;;;;;;32.83;12.45;;;;;;;8.24;61.52;103064.75;5076632;27;101135;-36
2022/03/24 01:05:12;;;;;;;28.08;10.50;;;;;;;8.22;60.89;103055.78;5076059;27;96550;-37
2022/03/24 01:07:39;;;;;;;29.02;11.55;;;;;;;8.22;61.52;103055.78;5076391;27;96790;-36
2022/03/24 01:10:06;;;;;;;26.85;12.15;;;;;;;8.17;61.22;103045.03;5076763;27;101179;-37
2022/03/24 01:12:32;;;;;;;36.25;12.57;;;;;;;8.17;61.68;103058.53;5095228;27;97331;-36
2022/03/24 01:14:58;;;;;;;31.45;12.05;;;;;;;8.22;60.52;103064.78;5076496;27;96746;-37
2022/03/24 01:17:26;;;;;;;36.00;11.85;;;;;;;8.17;61.89;103047.75;5076832;27;96845;-37
2022/03/24 01:19:52;;;;;;;37.00;12.40;;;;;;;8.15;59.95;103043.28;5076492;27;101033;-37
2022/03/24 01:22:17;;;;;;;38.92;12.98;;;;;;;8.14;61.13;103044.22;5077006;27;100820;-36
2022/03/24 01:24:43;;;;;;;31.88;11.20;;;;;;;8.15;62.04;103052.31;5099020;27;96425;-36
2022/03/24 01:27:10;;;;;;;41.08;11.63;;;;;;;8.02;63.84;103039.91;5099236;27;96720;-36
2022/03/24 01:29:36;;;;;;;47.58;12.20;;;;;;;8.01;62.45;103049.81;5098248;27;97946;-36
2022/03/24 01:32:01;;;;;;;31.23;11.00;;;;;;;7.99;61.57;103048.06;5098442;27;98659;-37
2022/03/24 01:34:27;;;;;;;32.60;11.68;;;;;;;7.96;62.86;103043.59;5099018;27;96707;-36
2022/03/24 01:36:52;;;;;;;39.97;11.98;;;;;;;7.88;63.09;103030.19;5098102;27;113045;-36
2022/03/24 01:39:18;;;;;;;34.15;11.65;;;;;;;7.89;63.45;103036.50;5079807;27;98838;-36
2022/03/24 01:41:47;;;;;;;42.47;13.52;;;;;;;7.83;62.27;103037.47;5098825;27;97415;-36
2022/03/24 01:44:14;;;;;;;26.05;10.20;;;;;;;7.85;64.10;103040.16;5079731;27;96882;-36
2022/03/24 01:47:00;;;;;;;37.03;11.38;;;;;;;7.85;63.72;103034.75;5080496;27;96893;-37
2022/03/24 01:49:26;;;;;;;30.48;11.68;;;;;;;7.77;64.39;103028.56;5098488;27;98045;-36
2022/03/24 01:51:53;;;;;;;32.72;12.35;;;;;;;7.75;64.51;103030.44;5079566;27;100685;-36
2022/03/24 01:54:20;;;;;;;31.35;10.13;;;;;;;7.70;63.73;103032.28;5097957;27;96689;-36
2022/03/24 01:56:46;;;;;;;30.65;13.00;;;;;;;7.63;64.36;103026.09;5079882;27;96853;-37
2022/03/24 01:59:14;;;;;;;33.90;11.43;;;;;;;7.61;63.38;103027.91;5098263;27;97571;-36
2022/03/24 02:01:40;;;;;;;37.65;13.25;;;;;;;7.58;64.16;103027.94;5079492;27;100923;-37
2022/03/24 02:04:05;;;;;;;34.20;12.52;;;;;;;7.55;64.12;103026.19;5098439;27;96473;-36
2022/03/24 02:06:34;;;;;;;30.05;12.68;;;;;;;7.52;63.29;103019.97;5098504;27;96760;-36
2022/03/24 02:09:00;;;;;;;28.33;11.93;;;;;;;7.54;64.56;103032.50;5097985;27;97365;-36
2022/03/24 02:11:27;;;;;;;32.42;12.05;;;;;;;7.52;63.42;103033.44;5079670;27;101005;-36
2022/03/24 02:13:54;;;;;;;33.95;11.23;;;;;;;7.47;64.40;103027.22;5079451;27;96625;-36
2022/03/24 02:16:20;;;;;;;35.75;9.55;;;;;;;7.45;64.61;103019.13;5079729;27;96805;-37
2022/03/24 02:18:46;;;;;;;36.20;12.25;;;;;;;7.40;65.49;103016.50;5097733;27;96886;-36
2022/03/24 02:21:15;;;;;;;35.83;13.02;;;;;;;7.35;63.93;103022.88;5079205;27;100680;-36
2022/03/24 02:23:43;;;;;;;35.00;12.20;;;;;;;7.34;63.73;103018.38;5079439;27;96836;-36
2022/03/24 02:26:09;;;;;;;31.73;13.60;;;;;;;7.35;64.23;103021.06;5098023;27;96780;-36
2022/03/24 02:28:35;;;;;;;33.78;12.65;;;;;;;7.29;64.30;103013.03;5079053;27;100550;-36
2022/03/24 02:31:00;;;;;;;33.25;13.80;;;;;;;7.31;65.80;103024.72;5097690;27;97290;-37
2022/03/24 02:33:25;;;;;;;31.83;10.57;;;;;;;7.21;65.62;103013.16;5098172;27;96565;-36
2022/03/24 02:35:51;;;;;;;34.92;11.57;;;;;;;7.15;65.36;103007.84;5096599;27;116550;-36
2022/03/24 02:38:20;;;;;;;30.20;11.10;;;;;;;7.18;65.72;103028.47;5097330;27;99491;-36
2022/03/24 02:40:47;;;;;;;22.23;10.07;;;;;;;7.10;65.83;103008.81;5096472;27;123866;-36
2022/03/24 02:43:12;;;;;;;31.58;11.52;;;;;;;7.05;65.89;103014.25;5078623;27;96750;-36
2022/03/24 02:45:38;;;;;;;33.90;10.23;;;;;;;7.08;65.81;103019.63;5097075;27;109641;-36
2022/03/24 02:48:04;;;;;;;28.27;10.48;;;;;;;7.09;66.07;103026.78;5097284;27;99325;-36
2022/03/24 02:50:29;;;;;;;27.55;10.65;;;;;;;7.05;65.86;103019.63;5061631;27;100179;-36
2022/03/24 02:52:55;;;;;;;28.83;11.18;;;;;;;6.99;64.87;103020.63;5097373;27;101544;-36
2022/03/24 02:55:20;;;;;;;30.08;10.02;;;;;;;7.00;65.83;103026.88;5097373;27;96801;-36
2022/03/24 02:57:45;;;;;;;33.78;12.93;;;;;;;6.99;66.29;103026.00;5097174;27;99373;-36
2022/03/24 03:00:11;;;;;;;35.42;12.02;;;;;;;6.97;65.53;103022.44;5097701;27;97815;-36
2022/03/24 03:02:37;;;;;;;25.25;10.45;;;;;;;6.93;65.94;103022.47;5097583;27;96573;-36
2022/03/24 03:05:03;;;;;;;33.75;11.20;;;;;;;6.91;66.05;103027.91;5097357;27;96777;-36
2022/03/24 03:07:28;;;;;;;32.08;10.80;;;;;;;6.86;66.33;103012.69;5095442;27;99295;-37
2022/03/24 03:09:54;;;;;;;29.73;10.52;;;;;;;6.79;65.90;103010.06;5095922;27;124388;-36
2022/03/24 03:12:19;;;;;;;34.28;11.00;;;;;;;6.74;66.14;103011.91;5096320;27;116232;-36
2022/03/24 03:14:46;;;;;;;29.60;10.52;;;;;;;6.78;66.20;103020.84;5097358;27;96765;-36
2022/03/24 03:17:15;;;;;;;36.08;11.55;;;;;;;6.76;65.85;103017.28;5078181;27;100740;-37
2022/03/24 03:19:41;;;;;;;27.85;9.73;;;;;;;6.77;66.46;103025.34;5097006;27;97835;-36
2022/03/24 03:22:08;;;;;;;34.10;12.50;;;;;;;6.73;66.13;103020.91;5097081;27;96614;-36
2022/03/24 03:24:33;;;;;;;31.83;13.02;;;;;;;6.68;66.54;103017.38;5097388;27;96771;-37
2022/03/24 03:26:58;;;;;;;27.60;10.25;;;;;;;6.64;66.77;103007.53;5096631;27;99224;-36
2022/03/24 03:29:24;;;;;;;33.13;11.18;;;;;;;6.66;66.72;103019.19;5096824;27;96958;-36
2022/03/24 03:31:50;;;;;;;25.88;11.70;;;;;;;6.53;65.99;103001.34;5096282;27;96585;-36
2022/03/24 03:34:24;;;;;;;34.92;12.18;;;;;;;6.59;66.60;103021.03;5078178;27;97677;-36
2022/03/24 03:36:51;;;;;;;26.90;10.38;;;;;;;6.57;66.19;103011.19;5096807;27;97917;-36
2022/03/24 03:39:26;;;;;;;33.22;10.07;;;;;;;6.52;67.95;103007.66;5078008;27;100866;-36
2022/03/24 03:41:52;;;;;;;37.85;11.82;;;;;;;6.51;68.10;103022.03;5078231;27;96634;-36
2022/03/24 03:44:19;;;;;;;37.15;14.40;;;;;;;6.51;65.98;103014.84;5077997;27;96785;-36
2022/03/24 03:46:45;;;;;;;30.77;11.70;;;;;;;6.51;66.49;103024.72;5076738;27;101035;-36
2022/03/24 03:49:10;;;;;;;30.17;11.43;;;;;;;6.46;66.86;103008.63;5096746;27;97650;-36
2022/03/24 03:51:37;;;;;;;28.73;10.90;;;;;;;6.52;66.47;103016.63;5096742;27;96537;-36
2022/03/24 03:54:04;;;;;;;27.75;10.40;;;;;;;6.42;67.71;103004.16;5077914;27;96811;-37
2022/03/24 03:56:29;;;;;;;37.33;13.98;;;;;;;6.40;68.07;103005.09;5095973;27;97925;-36
2022/03/24 03:58:54;;;;;;;24.52;10.05;;;;;;;6.46;68.99;103021.16;5095645;27;117731;-36
2022/03/24 04:01:19;;;;;;;24.75;11.48;;;;;;;6.41;68.17;103012.25;5095954;27;109553;-36
2022/03/24 04:03:45;;;;;;;28.38;11.82;;;;;;;6.33;67.83;102997.06;5095631;27;104047;-36
2022/03/24 04:06:12;;;;;;;33.50;12.10;;;;;;;6.35;67.11;103006.00;5096292;27;98009;-36
2022/03/24 04:08:39;;;;;;;29.38;11.88;;;;;;;6.38;67.23;103013.16;5076894;27;101322;-36
2022/03/24 04:11:09;;;;;;;31.38;12.73;;;;;;;6.35;67.92;103015.88;5077709;27;96546;-36
2022/03/24 04:13:39;;;;;;;28.50;11.27;;;;;;;6.28;68.29;103012.34;5096755;27;96711;-36
2022/03/24 04:16:06;;;;;;;35.60;12.82;;;;;;;6.21;68.15;103013.31;5096033;27;97505;-36
2022/03/24 04:18:32;;;;;;;29.02;9.82;;;;;;;6.20;68.66;103006.16;5077388;27;100871;-36
2022/03/24 04:20:58;;;;;;;32.63;13.15;;;;;;;6.18;67.08;103002.59;5077176;27;96547;-36
2022/03/24 04:23:23;;;;;;;32.50;11.80;;;;;;;6.19;67.76;103007.03;5077557;27;96822;-36
2022/03/24 04:25:49;;;;;;;39.83;11.20;;;;;;;6.20;68.03;103002.53;5095695;27;99400;-36
2022/03/24 04:28:14;;;;;;;30.42;10.82;;;;;;;6.17;67.46;103006.16;5095736;27;110851;-36
2022/03/24 04:30:42;;;;;;;40.42;14.45;;;;;;;6.22;67.84;103024.97;5077542;27;96711;-36
2022/03/24 04:33:08;;;;;;;27.80;11.57;;;;;;;6.14;66.68;103015.16;5077507;27;96756;-36
2022/03/24 04:35:33;;;;;;;34.85;12.60;;;;;;;6.16;67.64;103018.72;5095490;27;99189;-36
2022/03/24 04:37:59;;;;;;;33.60;13.40;;;;;;;6.12;68.59;103018.75;5096147;27;97270;-36
2022/03/24 04:40:24;;;;;;;36.83;13.25;;;;;;;6.09;68.44;103010.72;5096211;27;96540;-36
2022/03/24 04:42:52;;;;;;;23.88;10.27;;;;;;;6.05;69.46;103015.22;5096187;27;96728;-36
2022/03/24 04:45:18;;;;;;;34.53;13.95;;;;;;;6.05;68.35;103015.22;5076043;27;100782;-36
2022/03/24 04:47:45;;;;;;;30.88;11.30;;;;;;;6.04;68.31;103023.31;5077157;27;100690;-36
2022/03/24 04:50:12;;;;;;;44.72;13.23;;;;;;;6.04;68.96;103018.84;5077257;27;96545;-36
2022/03/24 04:52:37;;;;;;;35.00;13.85;;;;;;;6.06;68.01;103026.91;5077195;27;96895;-36
2022/03/24 04:55:04;;;;;;;26.30;11.20;;;;;;;6.06;68.22;103027.78;5095454;27;98069;-36
2022/03/24 04:57:29;;;;;;;29.50;12.75;;;;;;;6.00;68.75;103026.94;5095513;27;99661;-36
2022/03/24 04:59:57;;;;;;;24.85;10.30;;;;;;;5.99;69.19;103019.78;5080772;27;96742;-36
2022/03/24 05:02:24;;;;;;;31.80;13.65;;;;;;;5.92;68.86;103022.47;5081029;27;96802;-37
2022/03/24 05:04:50;;;;;;;29.27;11.40;;;;;;;5.94;68.54;103026.06;5080203;27;99095;-37
2022/03/24 05:07:15;;;;;;;33.20;12.90;;;;;;;5.94;67.82;103027.88;5098792;27;97360;-36
2022/03/24 05:09:40;;;;;;;25.70;10.10;;;;;;;5.97;68.22;103041.31;5097763;27;118844;-36
2022/03/24 05:12:06;;;;;;;26.70;11.43;;;;;;;5.92;69.42;103035.03;5098199;27;119165;-36
2022/03/24 05:14:32;;;;;;;23.65;11.32;;;;;;;5.95;69.49;103035.91;5080012;27;100864;-36
2022/03/24 05:16:58;;;;;;;34.17;11.88;;;;;;;5.91;68.30;103035.91;5098983;27;97829;-36
2022/03/24 05:19:23;;;;;;;30.13;12.38;;;;;;;5.87;69.43;103042.25;5080664;27;96730;-36
2022/03/24 05:21:56;;;;;;;31.20;13.43;;;;;;;5.88;67.53;103034.13;5099298;27;96855;-36
2022/03/24 05:24:21;;;;;;;28.77;11.57;;;;;;;5.87;69.65;103043.13;5080145;27;100974;-36
2022/03/24 05:26:46;;;;;;;38.92;12.40;;;;;;;5.79;68.81;103036.00;5098464;27;115976;-36
2022/03/24 05:29:13;;;;;;;42.00;13.40;;;;;;;5.80;69.63;103038.69;5097807;27;118671;-36
2022/03/24 05:31:38;;;;;;;28.48;11.88;;;;;;;5.81;68.42;103042.28;5099071;27;96564;-36
2022/03/24 05:34:04;;;;;;;26.63;10.63;;;;;;;5.73;69.14;103034.25;5097959;27;99204;-36
2022/03/24 05:36:30;;;;;;;29.67;12.93;;;;;;;5.73;69.01;103042.31;5098392;27;99204;-36
2022/03/24 05:38:56;;;;;;;37.92;13.27;;;;;;;5.76;68.35;103050.34;5080084;27;96632;-37
2022/03/24 05:41:21;;;;;;;52.22;14.07;;;;;;;5.74;69.04;103052.16;5098589;27;96789;-36
2022/03/24 05:44:05;;;;;;;35.25;13.85;;;;;;;5.68;68.62;103041.47;5097946;27;104781;-36
2022/03/24 05:46:44;;;;;;;29.60;10.70;;;;;;;5.73;68.90;103061.16;5098188;27;99152;-37
2022/03/24 05:49:14;;;;;;;29.20;12.85;;;;;;;5.66;69.02;103043.25;5080064;27;96560;-36
2022/03/24 05:51:42;;;;;;;39.30;14.80;;;;;;;5.58;69.31;103034.31;5098990;27;96799;-36
2022/03/24 05:54:08;;;;;;;33.67;13.73;;;;;;;5.59;69.65;103050.47;5079297;27;101277;-37
2022/03/24 05:56:34;;;;;;;44.25;14.88;;;;;;;5.61;69.78;103061.22;5098046;27;99553;-36
2022/03/24 05:58:59;;;;;;;29.08;11.63;;;;;;;5.60;69.62;103059.41;5097113;27;113878;-36
2022/03/24 06:01:24;;;;;;;35.78;10.98;;;;;;;5.67;69.33;103056.72;5097643;27;116404;-36
2022/03/24 06:03:51;;;;;;;21.08;9.50;;;;;;;5.59;69.66;103046.88;5097897;27;97936;-36
2022/03/24 06:06:17;;;;;;;25.20;11.35;;;;;;;5.64;69.91;103056.69;5079590;27;101487;-36
2022/03/24 06:08:43;;;;;;;29.63;11.98;;;;;;;5.58;70.17;103045.06;5097790;27;96828;-36
2022/03/24 06:11:15;;;;;;;24.63;10.60;;;;;;;5.58;68.93;103039.69;5097410;27;96782;-36
2022/03/24 06:13:42;;;;;;;25.75;11.32;;;;;;;5.67;69.89;103055.78;5097761;27;98265;-36
2022/03/24 06:16:08;;;;;;;24.73;11.65;;;;;;;5.62;69.30;103053.13;5097999;27;99071;-36
2022/03/24 06:18:35;;;;;;;36.42;13.50;;;;;;;5.63;68.49;103046.88;5079557;27;96682;-36
2022/03/24 06:21:01;;;;;;;31.25;11.88;;;;;;;5.72;69.00;103051.28;5079524;27;96794;-36
2022/03/24 06:23:26;;;;;;;32.15;13.48;;;;;;;5.72;68.15;103060.25;5097665;27;97304;-36
2022/03/24 06:26:01;;;;;;;27.75;11.07;;;;;;;5.69;70.05;103048.59;5097815;27;97816;-36
2022/03/24 06:28:27;;;;;;;28.23;11.70;;;;;;;5.71;68.92;103046.81;5098016;27;96631;-36
2022/03/24 06:30:52;;;;;;;30.17;12.63;;;;;;;5.75;67.93;103051.28;5098288;27;96741;-36
2022/03/24 06:33:18;;;;;;;25.73;11.38;;;;;;;5.80;67.82;103057.50;5096688;27;126460;-36
2022/03/24 06:35:45;;;;;;;32.35;12.65;;;;;;;5.83;67.79;103054.81;5097488;27;97268;-36
2022/03/24 06:38:11;;;;;;;26.73;12.00;;;;;;;5.89;68.09;103057.47;5079300;27;96580;-36
2022/03/24 06:40:38;;;;;;;25.90;11.00;;;;;;;5.91;67.36;103050.28;5079540;27;96786;-36
2022/03/24 06:43:05;;;;;;;36.08;11.65;;;;;;;6.03;67.46;103053.81;5097102;27;99463;-36
2022/03/24 06:45:37;;;;;;;32.65;12.23;;;;;;;6.12;67.14;103065.38;5078787;27;100881;-36
2022/03/24 06:48:06;;;;;;;30.70;12.23;;;;;;;6.14;67.39;103058.22;5097314;27;96824;-36
2022/03/24 06:50:32;;;;;;;35.72;12.75;;;;;;;6.30;66.30;103064.38;5079003;27;96830;-36
2022/03/24 06:52:58;;;;;;;36.15;12.48;;;;;;;6.37;65.82;103051.75;5097127;27;98815;-36
2022/03/24 06:55:23;;;;;;;33.58;12.68;;;;;;;6.50;65.55;103049.84;5097188;27;97767;-36
2022/03/24 06:57:48;;;;;;;35.90;14.63;;;;;;;6.68;64.68;103049.69;5097632;27;96571;-36
2022/03/24 07:00:15;;;;;;;30.60;11.88;;;;;;;6.91;65.04;103062.00;5097673;27;96812;-36
2022/03/24 07:02:42;;;;;;;33.38;12.15;;;;;;;7.09;64.26;103056.44;5078315;27;100782;-36
2022/03/24 07:05:11;;;;;;;33.47;13.80;;;;;;;7.30;64.60;103059.78;5097209;27;98829;-36
2022/03/24 07:07:37;;;;;;;34.42;15.15;;;;;;;7.44;63.89;103063.22;5074950;27;96889;-36
2022/03/24 07:10:02;;;;;;;32.10;11.98;;;;;;;7.60;64.04;103058.47;5075363;27;96903;-36
2022/03/24 07:12:28;;;;;;;35.30;12.88;;;;;;;7.84;64.01;103066.25;5075768;27;99373;-36
2022/03/24 07:14:53;;;;;;;35.28;13.50;;;;;;;7.96;63.50;103045.38;5075684;27;127092;-36
2022/03/24 07:17:19;;;;;;;27.52;11.98;;;;;;;8.22;63.12;103050.38;5075790;27;116793;-36
2022/03/24 07:19:45;;;;;;;37.10;13.65;;;;;;;8.36;63.81;103051.03;5075261;27;96780;-36
2022/03/24 07:22:10;;;;;;;42.30;15.25;;;;;;;8.55;62.95;103053.47;5074701;27;100672;-36
2022/03/24 07:24:36;;;;;;;44.10;14.15;;;;;;;8.76;63.27;103063.00;5076264;27;97755;-36
2022/03/24 07:27:02;;;;;;;37.85;13.52;;;;;;;8.90;62.85;103052.81;5076483;27;96517;-36
2022/03/24 07:29:27;;;;;;;46.00;14.95;;;;;;;9.04;62.55;103041.75;5076813;27;96746;-36
2022/03/24 07:31:53;;;;;;;47.03;14.70;;;;;;;9.30;62.42;103062.84;5074685;27;97577;-36
2022/03/24 07:34:19;;;;;;;39.22;13.63;;;;;;;9.47;63.17;103062.50;5075854;27;99068;-36
2022/03/24 07:36:44;;;;;;;45.78;15.43;;;;;;;9.62;62.21;103061.28;5075875;27;96506;-36
2022/03/24 07:39:10;;;;;;;36.33;13.65;;;;;;;9.78;61.06;103060.88;5076091;27;96796;-36
2022/03/24 07:41:36;;;;;;;39.67;13.05;;;;;;;9.98;61.43;103062.25;5075624;27;101853;-36
2022/03/24 07:44:02;;;;;;;46.15;14.10;;;;;;;10.13;60.74;103064.59;5074273;27;101196;-36
2022/03/24 07:46:27;;;;;;;35.67;12.30;;;;;;;10.17;61.00;103046.44;5075983;27;96537;-36
2022/03/24 07:48:53;;;;;;;34.40;13.15;;;;;;;10.38;60.82;103066.75;5074943;27;118237;-36
2022/03/24 07:51:19;;;;;;;35.50;14.13;;;;;;;10.55;60.71;103059.06;5075888;27;97971;-36
2022/03/24 07:53:48;;;;;;;43.42;14.07;;;;;;;10.85;59.94;103072.75;5074692;27;100701;-36
2022/03/24 07:56:17;;;;;;;42.25;14.70;;;;;;;11.02;59.41;103059.59;5075733;27;102731;-36
2022/03/24 07:58:43;;;;;;;43.67;15.40;;;;;;;11.17;58.83;103057.41;5075906;27;96491;-36
2022/03/24 08:01:09;;;;;;;39.20;14.32;;;;;;;11.41;58.40;103062.09;5075052;27;97966;-36
2022/03/24 08:03:34;;;;;;;44.78;14.98;;;;;;;11.59;58.06;103055.25;5075301;27;98744;-37
2022/03/24 08:06:02;;;;;;;35.10;13.77;;;;;;;11.78;57.38;103063.72;5075837;27;96536;-37
2022/03/24 08:08:28;;;;;;;41.38;13.93;;;;;;;11.98;56.87;103076.69;5089843;27;96913;-36
2022/03/24 08:10:53;;;;;;;31.17;11.90;;;;;;;12.10;56.34;103070.88;5077353;27;101015;-36
2022/03/24 08:13:19;;;;;;;41.83;13.07;;;;;;;12.26;55.71;103084.84;5096210;27;97872;-36
2022/03/24 08:15:46;;;;;;;35.22;12.93;;;;;;;12.37;55.69;103075.44;5095997;27;96679;-36
2022/03/24 08:18:12;;;;;;;36.28;12.25;;;;;;;12.46;54.22;103076.03;5078138;27;96802;-36
2022/03/24 08:20:39;;;;;;;28.52;11.52;;;;;;;12.59;52.92;103089.22;5077322;27;100975;-36
2022/03/24 08:23:05;;;;;;;33.58;11.82;;;;;;;12.68;53.95;103089.81;5077141;27;103091;-36
2022/03/24 08:25:32;;;;;;;32.20;12.55;;;;;;;12.69;54.18;103080.69;5095682;27;96667;-36
2022/03/24 08:27:58;;;;;;;31.75;11.45;;;;;;;12.75;53.80;103082.28;5077548;27;96880;-37
2022/03/24 08:30:24;;;;;;;34.92;11.35;;;;;;;12.79;53.65;103077.66;5077045;27;100897;-36
2022/03/24 08:32:50;;;;;;;30.15;10.80;;;;;;;12.85;53.73;103088.34;5094907;27;98896;-36
2022/03/24 08:35:16;;;;;;;24.27;10.00;;;;;;;12.88;52.85;103088.22;5077298;27;96675;-36
2022/03/24 08:37:44;;;;;;;32.85;11.85;;;;;;;12.86;53.26;103090.97;5096166;27;96762;-36
2022/03/24 08:40:10;;;;;;;37.33;12.55;;;;;;;12.82;53.59;103089.28;5077018;27;101306;-36
2022/03/24 08:42:41;;;;;;;32.28;12.77;;;;;;;12.77;52.82;103093.13;5077298;27;101602;-36
2022/03/24 08:45:09;;;;;;;29.38;10.85;;;;;;;12.62;52.19;103079.13;5077162;27;96491;-36
2022/03/24 08:47:35;;;;;;;32.00;11.73;;;;;;;12.65;51.88;103102.59;5096045;27;97883;-36
2022/03/24 08:50:01;;;;;;;32.75;10.40;;;;;;;12.55;52.61;103091.16;5076550;27;100201;-36
2022/03/24 08:52:27;;;;;;;39.28;12.93;;;;;;;12.51;52.51;103089.47;5095791;27;97878;-36
2022/03/24 08:54:54;;;;;;;28.73;11.38;;;;;;;12.48;52.58;103090.47;5077341;27;96640;-37
2022/03/24 08:57:28;;;;;;;35.83;12.05;;;;;;;12.54;51.50;103108.41;5077022;27;96789;-37
2022/03/24 08:59:55;;;;;;;28.40;11.27;;;;;;;12.50;50.84;103110.34;5095447;27;99210;-36
2022/03/24 09:02:21;;;;;;;31.73;11.00;;;;;;;12.51;50.79;103109.41;5076844;27;101076;-36
2022/03/24 09:04:50;;;;;;;29.17;10.75;;;;;;;12.56;51.42;103117.41;5076899;27;96813;-36
2022/03/24 09:07:16;;;;;;;26.92;9.77;;;;;;;12.56;48.86;103114.69;5094318;27;96840;-36
2022/03/24 09:09:42;;;;;;;28.40;10.32;;;;;;;12.59;50.47;103119.13;5076722;27;101062;-36
2022/03/24 09:12:11;;;;;;;26.92;10.65;;;;;;;12.60;50.92;103126.34;5076789;27;100896;-36
2022/03/24 09:14:38;;;;;;;29.48;10.13;;;;;;;12.62;50.49;103119.91;5094874;27;96723;-36
2022/03/24 09:17:03;;;;;;;22.77;9.70;;;;;;;12.66;50.21;103109.84;5076948;27;96856;-37
2022/03/24 09:19:29;;;;;;;31.38;9.95;;;;;;;12.79;50.36;103113.88;5095343;27;97907;-36
2022/03/24 09:21:54;;;;;;;23.38;8.95;;;;;;;12.86;49.28;103112.75;5095394;27;97755;-36
2022/03/24 09:24:19;;;;;;;28.23;10.52;;;;;;;12.92;49.12;103111.66;5095683;27;96539;-36
2022/03/24 09:26:45;;;;;;;25.55;9.23;;;;;;;13.01;47.82;103105.88;5095063;27;108424;-36
2022/03/24 09:29:10;;;;;;;23.58;10.02;;;;;;;13.15;48.22;103114.41;5095066;27;122200;-37
2022/03/24 09:31:36;;;;;;;22.40;9.25;;;;;;;13.27;47.86;103118.56;5096655;27;96822;-36
2022/03/24 09:34:03;;;;;;;29.30;10.85;;;;;;;13.45;47.93;103121.56;5095526;27;96705;-36
2022/03/24 09:36:28;;;;;;;34.40;12.32;;;;;;;13.69;48.19;103119.75;5076667;27;96865;-36
2022/03/24 09:38:54;;;;;;;36.13;12.23;;;;;;;13.96;48.37;103115.94;5094334;27;97932;-36
2022/03/24 09:41:20;;;;;;;36.47;12.68;;;;;;;14.24;48.01;103104.81;5094805;27;97784;-36
2022/03/24 09:43:45;;;;;;;31.35;11.55;;;;;;;14.53;47.29;103102.72;5076704;27;96917;-36
2022/03/24 09:46:12;;;;;;;33.22;11.20;;;;;;;14.87;45.60;103109.50;5097997;27;96863;-36
2022/03/24 09:48:41;;;;;;;29.58;11.57;;;;;;;15.12;44.63;103109.31;5079655;27;100949;-36
2022/03/24 09:51:06;;;;;;;32.85;11.27;;;;;;;15.43;45.52;103113.41;5079710;27;100879;-36
2022/03/24 09:53:31;;;;;;;29.10;10.43;;;;;;;15.78;45.36;103099.97;5098455;27;96481;-36
2022/03/24 09:55:57;;;;;;;24.55;9.15;;;;;;;16.08;44.10;103108.53;5098880;27;108598;-37
2022/03/24 09:58:26;;;;;;;26.85;10.05;;;;;;;16.27;42.25;103105.78;5098817;27;98861;-36
2022/03/24 10:00:51;;;;;;;22.88;9.75;;;;;;;16.62;42.98;103108.63;5079910;27;100955;-36
2022/03/24 10:03:21;;;;;;;29.35;10.50;;;;;;;16.93;42.57;103108.84;5098605;27;96543;-36
2022/03/24 10:06:04;;;;;;;23.40;10.02;;;;;;;17.18;41.22;103111.19;5079752;27;97026;-36
2022/03/24 10:08:30;;;;;;;26.63;11.18;;;;;;;17.43;42.04;103115.34;5097365;27;99806;-36
2022/03/24 10:11:07;;;;;;;25.33;10.90;;;;;;;17.67;40.32;103102.13;5079372;27;101268;-36
2022/03/24 10:13:44;;;;;;;28.70;11.45;;;;;;;17.96;38.63;103107.88;5098766;27;96633;-37
2022/03/24 10:16:12;;;;;;;22.30;10.35;;;;;;;18.07;39.68;103099.91;5098330;27;96746;-36
2022/03/24 10:18:55;;;;;;;31.23;11.07;;;;;;;18.35;39.38;103104.69;5078983;27;100880;-36
2022/03/24 10:21:23;;;;;;;28.88;9.02;;;;;;;18.38;38.88;103104.50;5079736;27;100683;-36
2022/03/24 10:23:48;;;;;;;25.50;9.82;;;;;;;18.55;38.85;103098.03;5079525;27;96557;-37
2022/03/24 10:26:14;;;;;;;20.90;9.00;;;;;;;18.81;38.50;103101.09;5097847;27;96836;-36
2022/03/24 10:28:39;;;;;;;25.88;9.95;;;;;;;18.95;38.90;103106.66;5097692;27;97338;-36
2022/03/24 10:31:05;;;;;;;23.95;9.93;;;;;;;19.12;38.04;103096.50;5097464;27;97776;-36
2022/03/24 10:33:36;;;;;;;21.10;8.73;;;;;;;19.20;34.00;103094.13;5079353;27;96541;-36
2022/03/24 10:36:15;;;;;;;20.10;9.07;;;;;;;19.23;34.83;103110.41;5079255;27;96810;-37
2022/03/24 10:39:05;;;;;;;22.27;10.13;;;;;;;19.46;35.63;103101.63;5097580;27;96713;-36
2022/03/24 10:41:33;;;;;;;26.52;11.00;;;;;;;19.59;33.56;103098.97;5079253;27;100529;-37
2022/03/24 10:44:04;;;;;;;18.92;9.88;;;;;;;19.67;33.80;103093.88;5078896;27;96665;-36
2022/03/24 10:46:31;;;;;;;20.17;9.60;;;;;;;19.78;35.38;103092.31;5080458;27;96744;-36
2022/03/24 10:48:57;;;;;;;18.10;8.57;;;;;;;19.91;33.44;103091.44;5078840;27;100820;-36
2022/03/24 10:51:24;;;;;;;22.35;8.65;;;;;;;19.98;34.38;103096.53;5097003;27;113409;-36
2022/03/24 10:53:50;;;;;;;23.17;8.77;;;;;;;20.18;34.75;103104.34;5078463;27;96638;-36
2022/03/24 10:56:20;;;;;;;17.77;8.40;;;;;;;20.23;29.87;103096.66;5078140;27;97039;-37
2022/03/24 10:58:56;;;;;;;17.85;8.50;;;;;;;20.21;31.27;103103.25;5078563;27;100050;-36
2022/03/24 11:01:24;;;;;;;22.63;9.25;;;;;;;20.24;33.34;103092.94;5078624;27;99662;-37
2022/03/24 11:03:49;;;;;;;18.05;8.43;;;;;;;20.43;33.18;103097.22;5078816;27;96850;-37
2022/03/24 11:06:17;;;;;;;20.88;9.68;;;;;;;20.49;32.78;103094.91;5078895;27;96842;-36
2022/03/24 11:08:44;;;;;;;19.45;8.80;;;;;;;20.58;33.16;103102.56;5096460;27;97370;-36
2022/03/24 11:11:13;;;;;;;22.70;9.70;;;;;;;20.63;29.64;103085.75;5078857;27;100933;-36
2022/03/24 11:13:42;;;;;;;19.77;9.10;;;;;;;20.74;31.19;103098.78;5078708;27;96580;-37